createdAt,value
2022-11-07T00:02:05.762Z,11.18
2022-11-07T00:04:36.391Z,11.27
2022-11-07T00:07:07.272Z,11.23
2022-11-07T00:09:35.829Z,11.30
2022-11-07T00:12:04.221Z,11.31
2022-11-07T00:14:32.293Z,11.21
2022-11-07T00:17:00.387Z,11.22
2022-11-07T00:19:28.540Z,11.24
2022-11-07T00:21:57.939Z,11.14
2022-11-07T00:24:26.039Z,11.17
2022-11-07T00:26:54.075Z,11.14
2022-11-07T00:29:22.418Z,11.15
2022-11-07T00:31:50.598Z,11.26
2022-11-07T00:34:18.861Z,11.15
2022-11-07T00:36:46.882Z,11.21
2022-11-07T00:39:16.393Z,11.29
2022-11-07T00:41:44.377Z,11.32
2022-11-07T00:44:12.461Z,11.25
2022-11-07T00:46:40.429Z,11.41
2022-11-07T00:49:08.735Z,11.32
2022-11-07T00:51:36.762Z,11.17
2022-11-07T00:54:05.735Z,11.32
2022-11-07T00:56:35.650Z,11.33
2022-11-07T00:59:03.715Z,11.36
2022-11-07T01:01:33.784Z,11.32
2022-11-07T01:04:19.986Z,11.30
2022-11-07T01:06:48.360Z,11.38
2022-11-07T01:09:18.136Z,11.33
2022-11-07T01:11:48.057Z,11.49
2022-11-07T01:14:20.472Z,11.48
2022-11-07T01:16:48.732Z,11.43
2022-11-07T01:19:17.224Z,11.42
2022-11-07T01:21:45.528Z,11.49
2022-11-07T01:24:14.687Z,11.45
2022-11-07T01:26:44.528Z,11.22
2022-11-07T01:29:13.947Z,11.24
2022-11-07T01:31:42.237Z,11.44
2022-11-07T01:34:10.348Z,11.28
2022-11-07T01:36:38.565Z,11.30
2022-11-07T01:39:07.352Z,11.31
2022-11-07T01:41:38.194Z,11.29
2022-11-07T01:44:44.856Z,11.07
2022-11-07T01:47:14.184Z,11.15
2022-11-07T01:49:43.595Z,11.27
2022-11-07T01:52:15.856Z,11.19
2022-11-07T01:54:50.043Z,11.10
2022-11-07T01:57:22.697Z,10.92
2022-11-07T01:59:53.821Z,11.02
2022-11-07T02:02:25.221Z,10.95
2022-11-07T02:04:53.789Z,10.81
2022-11-07T02:07:24.391Z,10.74
2022-11-07T02:09:53.331Z,10.77
2022-11-07T02:12:23.584Z,10.81
2022-11-07T02:14:51.840Z,10.67
2022-11-07T02:17:20.271Z,10.79
2022-11-07T02:19:51.891Z,10.64
2022-11-07T02:22:26.622Z,10.83
2022-11-07T02:24:59.613Z,10.82
2022-11-07T02:27:30.714Z,10.73
2022-11-07T02:30:02.827Z,10.80
2022-11-07T02:32:31.193Z,10.73
2022-11-07T02:35:00.598Z,10.73
2022-11-07T02:37:33.694Z,10.71
2022-11-07T02:40:07.712Z,10.66
2022-11-07T02:42:44.426Z,10.69
2022-11-07T02:45:16.347Z,10.81
2022-11-07T02:47:44.434Z,10.76
2022-11-07T02:50:15.397Z,10.85
2022-11-07T02:52:43.590Z,10.74
2022-11-07T02:55:14.703Z,10.77
2022-11-07T02:57:43.717Z,10.82
2022-11-07T03:00:14.285Z,10.63
2022-11-07T03:02:46.958Z,10.78
2022-11-07T03:05:16.564Z,10.53
2022-11-07T03:07:45.687Z,10.69
2022-11-07T03:10:15.503Z,10.57
2022-11-07T03:12:43.852Z,10.52
2022-11-07T03:15:12.698Z,10.65
2022-11-07T03:17:40.897Z,10.65
2022-11-07T03:20:10.575Z,10.58
2022-11-07T03:22:38.864Z,10.51
2022-11-07T03:25:07.858Z,10.58
2022-11-07T03:27:37.267Z,10.50
2022-11-07T03:30:06.044Z,10.52
2022-11-07T03:32:34.862Z,10.57
2022-11-07T03:35:02.955Z,10.60
2022-11-07T03:37:30.893Z,10.71
2022-11-07T03:39:58.878Z,10.61
2022-11-07T03:42:26.970Z,10.73
2022-11-07T03:44:56.363Z,10.58
2022-11-07T03:47:24.504Z,10.53
2022-11-07T03:49:52.497Z,10.35
2022-11-07T03:52:20.583Z,10.33
2022-11-07T03:54:48.692Z,10.43
2022-11-07T03:57:16.832Z,10.26
2022-11-07T03:59:44.842Z,10.22
2022-11-07T04:02:14.592Z,10.47
2022-11-07T04:04:42.900Z,10.33
2022-11-07T04:07:10.948Z,10.33
2022-11-07T04:09:39.060Z,10.29
2022-11-07T04:12:25.356Z,10.32
2022-11-07T04:15:11.256Z,10.24
2022-11-07T04:17:40.601Z,10.22
2022-11-07T04:20:10.145Z,10.29
2022-11-07T04:22:38.091Z,10.24
2022-11-07T04:25:07.064Z,10.35
2022-11-07T04:27:43.219Z,10.28
2022-11-07T04:30:24.893Z,10.24
2022-11-07T04:32:56.274Z,10.19
2022-11-07T04:35:26.295Z,10.27
2022-11-07T04:37:55.505Z,10.38
2022-11-07T04:40:23.526Z,10.31
2022-11-07T04:42:51.869Z,10.38
2022-11-07T04:45:20.201Z,10.28
2022-11-07T04:47:48.556Z,10.29
2022-11-07T04:50:20.438Z,10.39
2022-11-07T04:52:49.242Z,10.34
2022-11-07T04:55:25.139Z,10.37
2022-11-07T04:57:53.662Z,10.46
2022-11-07T05:00:22.173Z,10.36
2022-11-07T05:02:51.184Z,10.27
2022-11-07T05:05:20.962Z,10.33
2022-11-07T05:07:49.554Z,10.39
2022-11-07T05:10:20.372Z,10.24
2022-11-07T05:12:48.957Z,10.18
2022-11-07T05:15:17.692Z,10.18
2022-11-07T05:17:45.839Z,10.21
2022-11-07T05:20:29.590Z,10.30
2022-11-07T05:23:15.347Z,10.34
2022-11-07T05:25:45.553Z,10.26
2022-11-07T05:28:15.992Z,10.39
2022-11-07T05:30:45.472Z,10.44
2022-11-07T05:33:15.309Z,10.34
2022-11-07T05:35:45.818Z,10.56
2022-11-07T05:38:13.961Z,10.37
2022-11-07T05:40:42.373Z,10.26
2022-11-07T05:43:13.927Z,10.42
2022-11-07T05:45:42.762Z,10.48
2022-11-07T05:48:12.704Z,10.43
2022-11-07T05:50:41.616Z,10.35
2022-11-07T05:53:11.356Z,10.55
2022-11-07T05:55:39.498Z,10.42
2022-11-07T05:58:12.025Z,10.37
2022-11-07T06:00:40.531Z,10.37
2022-11-07T06:03:09.501Z,10.41
2022-11-07T06:05:39.094Z,10.39
2022-11-07T06:08:07.573Z,10.56
2022-11-07T06:10:37.149Z,10.40
2022-11-07T06:13:08.623Z,10.43
2022-11-07T06:15:38.306Z,10.46
2022-11-07T06:18:08.299Z,10.48
2022-11-07T06:20:36.489Z,10.56
2022-11-07T06:23:06.705Z,10.58
2022-11-07T06:25:37.356Z,10.64
2022-11-07T06:28:07.655Z,10.55
2022-11-07T06:30:36.202Z,10.57
2022-11-07T06:33:06.385Z,10.50
2022-11-07T06:35:35.075Z,10.56
2022-11-07T06:38:03.606Z,10.77
2022-11-07T06:40:31.973Z,10.88
2022-11-07T06:43:09.087Z,10.86
2022-11-07T06:45:37.576Z,10.96
2022-11-07T06:48:06.396Z,10.97
2022-11-07T06:50:35.569Z,11.11
2022-11-07T06:53:04.495Z,11.18
2022-11-07T06:55:33.797Z,11.15
2022-11-07T06:58:02.313Z,11.19
2022-11-07T07:00:33.477Z,11.23
2022-11-07T07:03:01.687Z,11.26
2022-11-07T07:05:29.935Z,11.34
2022-11-07T07:07:58.751Z,11.30
2022-11-07T07:10:27.032Z,11.43
2022-11-07T07:12:56.662Z,11.69
2022-11-07T07:15:25.262Z,11.57
2022-11-07T07:17:55.050Z,11.55
2022-11-07T07:20:23.144Z,11.47
2022-11-07T07:22:57.017Z,11.49
2022-11-07T07:25:27.816Z,11.44
2022-11-07T07:27:58.345Z,11.48
2022-11-07T07:30:26.392Z,11.54
2022-11-07T07:32:55.981Z,11.75
2022-11-07T07:35:24.219Z,11.79
2022-11-07T07:37:53.099Z,11.83
2022-11-07T07:40:22.104Z,11.90
2022-11-07T07:42:50.115Z,11.96
2022-11-07T07:45:18.529Z,11.92
2022-11-07T07:47:46.591Z,11.90
2022-11-07T07:50:15.957Z,12.11
2022-11-07T07:52:44.063Z,12.10
2022-11-07T07:55:12.078Z,12.20
2022-11-07T07:57:41.862Z,12.30
2022-11-07T08:00:12.199Z,12.32
2022-11-07T08:02:43.496Z,12.36
2022-11-07T08:05:12.590Z,12.35
2022-11-07T08:07:48.078Z,12.53
2022-11-07T08:13:06.317Z,12.66
2022-11-07T08:15:34.428Z,12.50
2022-11-07T08:18:03.274Z,12.64
2022-11-07T08:20:31.479Z,12.54
2022-11-07T08:23:06.924Z,12.52
2022-11-07T08:25:38.738Z,12.53
2022-11-07T08:28:08.597Z,12.56
2022-11-07T08:30:36.695Z,12.52
2022-11-07T08:33:05.157Z,12.73
2022-11-07T08:35:35.792Z,12.84
2022-11-07T08:38:09.665Z,12.77
2022-11-07T08:40:38.164Z,12.76
2022-11-07T08:43:06.477Z,12.73
2022-11-07T08:45:34.578Z,12.83
2022-11-07T08:48:03.487Z,12.81
2022-11-07T08:50:31.472Z,12.75
2022-11-07T08:53:02.933Z,12.85
2022-11-07T08:55:32.877Z,12.72
2022-11-07T08:58:01.420Z,12.92
2022-11-07T09:00:29.876Z,12.99
2022-11-07T09:03:24.205Z,12.93
2022-11-07T09:05:46.313Z,13.18
2022-11-07T09:08:14.546Z,13.12
2022-11-07T09:10:44.261Z,13.03
2022-11-07T09:13:14.615Z,13.27
2022-11-07T09:15:47.837Z,13.26
2022-11-07T09:18:18.700Z,13.47
2022-11-07T09:20:47.452Z,13.42
2022-11-07T09:23:15.981Z,13.32
2022-11-07T09:25:46.242Z,13.35
2022-11-07T09:28:15.037Z,13.67
2022-11-07T09:30:43.116Z,13.39
2022-11-07T09:33:11.582Z,13.47
2022-11-07T09:35:39.760Z,13.54
2022-11-07T09:38:07.900Z,13.43
2022-11-07T09:40:44.459Z,13.38
2022-11-07T09:43:29.812Z,13.41
2022-11-07T09:46:05.465Z,13.43
2022-11-07T09:48:43.400Z,13.59
2022-11-07T09:51:16.693Z,13.45
2022-11-07T09:53:51.816Z,13.39
2022-11-07T09:56:20.169Z,13.54
2022-11-07T09:58:54.433Z,13.40
2022-11-07T10:01:23.255Z,13.32
2022-11-07T10:04:22.815Z,13.27
2022-11-07T10:06:46.687Z,13.20
2022-11-07T10:09:19.527Z,13.31
2022-11-07T10:11:56.228Z,13.40
2022-11-07T10:14:36.651Z,13.19
2022-11-07T10:17:18.322Z,13.19
2022-11-07T10:19:58.806Z,13.25
2022-11-07T10:22:41.547Z,13.12
2022-11-07T10:25:21.401Z,13.15
2022-11-07T10:27:56.597Z,13.10
2022-11-07T10:30:26.322Z,13.30
2022-11-07T10:33:02.874Z,13.29
2022-11-07T10:35:33.297Z,13.29
2022-11-07T10:38:04.819Z,13.13
2022-11-07T10:40:38.394Z,13.17
2022-11-07T10:43:12.681Z,13.29
2022-11-07T10:45:42.778Z,13.45
2022-11-07T10:48:14.619Z,13.31
2022-11-07T10:50:52.607Z,13.22
2022-11-07T10:53:22.515Z,13.26
2022-11-07T10:55:52.420Z,13.27
2022-11-07T10:58:22.540Z,13.49
2022-11-07T11:01:07.117Z,13.55
2022-11-07T11:03:44.827Z,13.51
2022-11-07T11:06:24.270Z,13.71
2022-11-07T11:08:53.980Z,13.47
2022-11-07T11:11:29.734Z,13.58
2022-11-07T11:14:06.713Z,13.52
2022-11-07T11:16:40.153Z,13.47
2022-11-07T11:19:20.589Z,13.64
2022-11-07T11:21:51.910Z,13.54
2022-11-07T11:24:37.512Z,13.58
2022-11-07T11:27:18.978Z,13.74
2022-11-07T11:29:55.444Z,13.64
2022-11-07T11:32:29.740Z,13.76
2022-11-07T11:35:06.857Z,13.79
2022-11-07T11:37:39.810Z,13.89
2022-11-07T11:40:18.753Z,13.86
2022-11-07T11:42:56.045Z,13.89
2022-11-07T11:45:33.850Z,13.97
2022-11-07T11:48:24.879Z,13.94
2022-11-07T11:51:06.415Z,14.00
2022-11-07T11:53:35.372Z,14.11
2022-11-07T11:56:27.052Z,14.27
2022-11-07T11:59:22.248Z,14.05
2022-11-07T12:02:04.175Z,14.03
2022-11-07T12:04:48.507Z,14.12
2022-11-07T12:07:37.803Z,14.25
2022-11-07T12:10:18.542Z,14.44
2022-11-07T12:13:04.063Z,14.44
2022-11-07T12:15:51.546Z,14.52
2022-11-07T12:18:31.801Z,14.67
2022-11-07T12:21:14.913Z,14.60
2022-11-07T12:23:55.385Z,14.83
2022-11-07T12:26:33.069Z,14.94
2022-11-07T12:29:10.027Z,14.84
2022-11-07T12:31:52.446Z,14.96
2022-11-07T12:34:46.830Z,15.14
2022-11-07T12:37:57.433Z,15.09
2022-11-07T12:40:33.835Z,15.25
2022-11-07T12:43:22.707Z,14.97
2022-11-07T12:45:58.611Z,15.09
2022-11-07T12:48:56.453Z,14.83
2022-11-07T12:51:34.585Z,15.01
2022-11-07T12:54:17.001Z,14.95
2022-11-07T12:56:48.451Z,14.91
2022-11-07T12:59:24.956Z,14.81
2022-11-07T13:02:00.640Z,14.70
2022-11-07T13:04:35.900Z,14.76
2022-11-07T13:07:12.178Z,14.73
2022-11-07T13:09:51.573Z,14.60
2022-11-07T13:12:29.988Z,14.82
2022-11-07T13:14:58.601Z,14.83
2022-11-07T13:17:30.571Z,14.78
2022-11-07T13:20:03.703Z,14.90
2022-11-07T13:22:37.194Z,14.74
2022-11-07T13:25:24.887Z,14.81
2022-11-07T13:28:08.660Z,14.76
2022-11-07T13:30:39.968Z,14.76
2022-11-07T13:33:23.468Z,14.83
2022-11-07T13:35:55.401Z,14.58
2022-11-07T13:38:26.111Z,14.58
2022-11-07T13:41:01.951Z,14.65
2022-11-07T13:43:38.813Z,14.71
2022-11-07T13:46:23.688Z,14.76
2022-11-07T13:48:55.016Z,14.62
2022-11-07T13:51:28.111Z,14.72
2022-11-07T13:54:06.701Z,14.65
2022-11-07T13:56:43.193Z,14.59
2022-11-07T13:59:17.446Z,14.64
2022-11-07T14:01:46.911Z,14.81
2022-11-07T14:04:21.563Z,14.86
2022-11-07T14:06:51.373Z,14.89
2022-11-07T14:09:21.928Z,14.82
2022-11-07T14:11:53.917Z,14.75
2022-11-07T14:14:24.606Z,14.77
2022-11-07T14:16:59.070Z,14.77
2022-11-07T14:19:30.364Z,14.69
2022-11-07T14:21:59.106Z,14.61
2022-11-07T14:24:29.365Z,14.77
2022-11-07T14:27:04.285Z,14.55
2022-11-07T14:29:32.675Z,14.59
2022-11-07T14:32:02.233Z,14.75
2022-11-07T14:34:30.671Z,14.83
2022-11-07T14:37:00.769Z,14.78
2022-11-07T14:39:31.839Z,14.64
2022-11-07T14:42:04.146Z,14.59
2022-11-07T14:47:28.292Z,14.56
2022-11-07T14:49:57.242Z,14.50
2022-11-07T14:52:27.832Z,14.59
2022-11-07T14:55:01.439Z,14.66
2022-11-07T14:57:32.042Z,14.53
2022-11-07T15:00:00.027Z,14.81
2022-11-07T15:02:30.653Z,14.73
2022-11-07T15:05:06.801Z,14.62
2022-11-07T15:07:47.788Z,14.44
2022-11-07T15:10:24.876Z,14.66
2022-11-07T15:12:57.052Z,14.60
2022-11-07T15:15:31.427Z,14.78
2022-11-07T15:18:01.954Z,14.63
2022-11-07T15:20:35.919Z,14.58
2022-11-07T15:23:07.330Z,14.52
2022-11-07T15:25:37.757Z,14.50
2022-11-07T15:28:25.032Z,14.41
2022-11-07T15:30:55.147Z,14.52
2022-11-07T15:33:24.355Z,14.44
2022-11-07T15:35:57.041Z,14.47
2022-11-07T15:38:27.361Z,14.46
2022-11-07T15:40:55.814Z,14.41
2022-11-07T15:43:25.255Z,14.45
2022-11-07T15:45:54.581Z,14.42
2022-11-07T15:48:27.926Z,14.43
2022-11-07T15:50:57.599Z,14.55
2022-11-07T15:53:27.703Z,14.46
2022-11-07T15:55:58.724Z,14.47
2022-11-07T15:58:30.375Z,14.51
2022-11-07T16:00:59.637Z,14.53
2022-11-07T16:03:28.422Z,14.40
2022-11-07T16:06:01.708Z,14.39
2022-11-07T16:08:31.681Z,14.34
2022-11-07T16:11:02.275Z,14.26
2022-11-07T16:13:31.735Z,14.36
2022-11-07T16:16:01.785Z,14.34
2022-11-07T16:18:37.772Z,14.26
2022-11-07T16:21:06.486Z,14.23
2022-11-07T16:23:34.578Z,14.39
2022-11-07T16:26:02.874Z,14.47
2022-11-07T16:28:34.063Z,14.39
2022-11-07T16:31:03.248Z,14.26
2022-11-07T16:33:31.649Z,14.17
2022-11-07T16:36:04.879Z,14.38
2022-11-07T16:38:35.404Z,14.37
2022-11-07T16:41:03.902Z,14.31
2022-11-07T16:43:35.258Z,14.47
2022-11-07T16:46:04.185Z,14.48
2022-11-07T16:48:32.617Z,14.45
2022-11-07T16:51:00.735Z,14.40
2022-11-07T16:53:28.716Z,14.31
2022-11-07T16:56:01.932Z,14.50
2022-11-07T16:58:32.134Z,14.34
2022-11-07T17:01:03.850Z,14.36
2022-11-07T17:03:32.153Z,14.29
2022-11-07T17:06:02.992Z,14.42
2022-11-07T17:08:37.903Z,14.47
2022-11-07T17:11:06.642Z,14.46
2022-11-07T17:13:34.937Z,14.44
2022-11-07T17:16:04.414Z,14.47
2022-11-07T17:18:32.442Z,14.36
2022-11-07T17:21:03.454Z,14.44
2022-11-07T17:23:31.471Z,14.42
2022-11-07T17:26:01.357Z,14.57
2022-11-07T17:28:29.381Z,14.41
2022-11-07T17:30:57.352Z,14.51
2022-11-07T17:33:26.845Z,14.50
2022-11-07T17:35:56.545Z,14.47
2022-11-07T17:38:25.338Z,14.38
2022-11-07T17:40:53.358Z,14.46
2022-11-07T17:43:21.320Z,14.40
2022-11-07T17:45:49.470Z,14.43
2022-11-07T17:48:17.699Z,14.40
2022-11-07T17:50:47.851Z,14.31
2022-11-07T17:53:15.815Z,14.45
2022-11-07T17:55:43.873Z,14.37
2022-11-07T17:58:11.917Z,14.32
2022-11-07T18:00:40.528Z,14.34
2022-11-07T18:03:08.663Z,14.44
2022-11-07T18:05:37.020Z,14.39
2022-11-07T18:08:07.362Z,14.37
2022-11-07T18:10:40.150Z,14.23
2022-11-07T18:13:08.910Z,14.39
2022-11-07T18:15:38.948Z,14.44
2022-11-07T18:18:10.931Z,14.31
2022-11-07T18:20:39.168Z,14.31
2022-11-07T18:23:08.705Z,14.22
2022-11-07T18:25:36.685Z,14.35
2022-11-07T18:28:06.221Z,14.32
2022-11-07T18:30:36.297Z,14.37
2022-11-07T18:33:04.351Z,14.28
2022-11-07T18:35:32.228Z,14.35
2022-11-07T18:38:00.294Z,14.26
2022-11-07T18:40:29.602Z,14.17
2022-11-07T18:42:57.647Z,14.28
2022-11-07T18:45:26.126Z,14.22
2022-11-07T18:47:54.024Z,14.22
2022-11-07T18:50:22.033Z,14.27
2022-11-07T18:52:50.003Z,14.29
2022-11-07T18:55:17.948Z,14.25
2022-11-07T18:57:47.245Z,14.29
2022-11-07T19:00:16.497Z,14.21
2022-11-07T19:02:46.140Z,14.24
2022-11-07T19:05:14.738Z,14.18
2022-11-07T19:07:44.848Z,14.42
2022-11-07T19:10:13.211Z,14.32
2022-11-07T19:12:41.568Z,14.39
2022-11-07T19:15:12.485Z,14.25
2022-11-07T19:17:40.839Z,14.26
2022-11-07T19:20:10.352Z,14.16
2022-11-07T19:22:38.624Z,14.15
2022-11-07T19:25:07.629Z,14.22
2022-11-07T19:27:37.629Z,14.31
2022-11-07T19:30:08.364Z,14.19
2022-11-07T19:32:37.983Z,14.28
2022-11-07T19:35:07.053Z,14.17
2022-11-07T19:37:35.250Z,14.24
2022-11-07T19:40:03.448Z,14.20
2022-11-07T19:42:31.627Z,14.25
2022-11-07T19:44:59.725Z,14.28
2022-11-07T19:47:34.152Z,14.23
2022-11-07T19:50:04.041Z,14.28
2022-11-07T19:52:33.438Z,14.40
2022-11-07T19:55:03.028Z,14.44
2022-11-07T19:57:31.124Z,14.34
2022-11-07T19:59:59.265Z,14.38
2022-11-07T20:02:32.902Z,14.28
2022-11-07T20:05:04.215Z,14.32
2022-11-07T20:07:32.457Z,14.20
2022-11-07T20:10:01.365Z,14.41
2022-11-07T20:12:29.528Z,14.34
2022-11-07T20:14:57.730Z,14.17
2022-11-07T20:17:25.976Z,14.30
2022-11-07T20:19:54.842Z,14.24
2022-11-07T20:22:24.635Z,14.20
2022-11-07T20:24:52.625Z,14.11
2022-11-07T20:27:20.918Z,14.11
2022-11-07T20:29:48.932Z,14.06
2022-11-07T20:32:17.212Z,13.86
2022-11-07T20:34:47.789Z,14.06
2022-11-07T20:37:21.024Z,13.96
2022-11-07T20:39:51.720Z,13.91
2022-11-07T20:42:19.935Z,13.93
2022-11-07T20:44:48.066Z,13.85
2022-11-07T20:47:16.060Z,13.86
2022-11-07T20:49:44.067Z,13.78
2022-11-07T20:52:12.093Z,13.72
2022-11-07T20:54:40.369Z,13.66
2022-11-07T20:57:09.708Z,13.73
2022-11-07T20:59:37.768Z,13.74
2022-11-07T21:02:05.682Z,13.58
2022-11-07T21:04:49.915Z,13.60
2022-11-07T21:07:23.783Z,13.71
2022-11-07T21:09:52.169Z,13.60
2022-11-07T21:12:21.570Z,13.41
2022-11-07T21:14:49.825Z,13.51
2022-11-07T21:17:18.036Z,13.60
2022-11-07T21:19:46.135Z,13.36
2022-11-07T21:22:14.147Z,13.50
2022-11-07T21:24:42.236Z,13.39
2022-11-07T21:27:10.194Z,13.31
2022-11-07T21:29:39.595Z,13.43
2022-11-07T21:32:08.618Z,13.27
2022-11-07T21:34:38.766Z,13.31
2022-11-07T21:37:07.760Z,13.30
2022-11-07T21:39:36.032Z,13.49
2022-11-07T21:42:04.321Z,13.45
2022-11-07T21:44:32.439Z,13.47
2022-11-07T21:47:01.855Z,13.34
2022-11-07T21:49:29.814Z,13.33
2022-11-07T21:51:57.934Z,13.32
2022-11-07T21:54:25.934Z,13.27
2022-11-07T21:56:53.973Z,13.25
2022-11-07T21:59:21.926Z,13.19
2022-11-07T22:01:50.891Z,13.24
2022-11-07T22:04:20.326Z,13.35
2022-11-07T22:06:48.248Z,13.37
2022-11-07T22:09:18.229Z,13.21
2022-11-07T22:11:46.419Z,13.26
2022-11-07T22:14:15.983Z,13.25
2022-11-07T22:16:44.070Z,13.25
2022-11-07T22:19:13.208Z,13.36
2022-11-07T22:21:43.401Z,13.14
2022-11-07T22:24:11.848Z,13.16
2022-11-07T22:26:39.792Z,13.03
2022-11-07T22:29:07.929Z,13.07
2022-11-07T22:31:36.303Z,13.03
2022-11-07T22:34:04.468Z,13.05
2022-11-07T22:36:32.508Z,12.82
2022-11-07T22:39:01.929Z,12.85
2022-11-07T22:41:30.224Z,12.93
2022-11-07T22:43:59.132Z,12.83
2022-11-07T22:46:29.127Z,12.75
2022-11-07T22:48:58.819Z,12.75
2022-11-07T22:51:29.576Z,12.74
2022-11-07T22:53:59.466Z,12.66
2022-11-07T22:56:30.101Z,12.50
2022-11-07T22:58:58.337Z,12.57
2022-11-07T23:01:28.461Z,12.41
2022-11-07T23:03:57.609Z,12.40
2022-11-07T23:06:27.075Z,12.37
2022-11-07T23:08:57.063Z,12.40
2022-11-07T23:14:18.602Z,12.38
2022-11-07T23:16:48.892Z,12.36
2022-11-07T23:19:18.787Z,12.35
2022-11-07T23:21:47.217Z,12.30
2022-11-07T23:24:15.574Z,12.41
2022-11-07T23:26:43.981Z,12.16
2022-11-07T23:29:15.973Z,12.20
2022-11-07T23:31:46.783Z,12.20
2022-11-07T23:34:15.692Z,12.09
2022-11-07T23:36:44.922Z,12.09
2022-11-07T23:39:14.548Z,12.07
2022-11-07T23:41:43.134Z,11.93
2022-11-07T23:44:11.902Z,11.91
2022-11-07T23:46:58.546Z,11.96
2022-11-07T23:49:43.894Z,12.01
2022-11-07T23:52:11.690Z,11.86
2022-11-07T23:54:57.108Z,11.79
2022-11-07T23:57:25.040Z,11.88
